Terminal Aerodrome Forecast
Issued by NWS

Home | Current Version | Previous Version | Text Only | Print | Product List | Glossary On
Versions: 1 2 3 4 5 6 7 8 9 10 11 12 13 14
064
FTUS44 KTSA 252340
TAFXNA
TAF
KXNA 252340Z 2600/2624 17006KT P6SM BKN250
     FM260200 VRB05KT P6SM FEW045 BKN250
     FM261200 20007KT P6SM SCT040 BKN120 PROB30 2612/2618 4SM -TSRA
      BR BKN035CB
     FM261800 17008KT P6SM BKN045 BKN150 PROB30 2618/2624 4SM -TSRA
      BKN040CB=

USA.gov is the U.S. government's official web portal to all federal, state and local government web resources and services.